sensor_id;sensor_type;location;lat;lon;timestamp;pressure;altitude;pressure_sealevel;temperature;humidity
3294;BME280;1659;51.470;6.770;2023-06-22T00:02:02;101619.13;;;22.27;57.73
3294;BME280;1659;51.470;6.770;2023-06-22T00:04:29;101629.94;;;22.25;57.80
3294;BME280;1659;51.470;6.770;2023-06-22T00:06:58;101626.47;;;22.23;58.01
3294;BME280;1659;51.470;6.770;2023-06-22T00:09:25;101620.31;;;22.21;58.04
3294;BME280;1659;51.470;6.770;2023-06-22T00:11:51;101623.06;;;22.20;58.28
3294;BME280;1659;51.470;6.770;2023-06-22T00:14:18;101625.84;;;22.18;58.27
3294;BME280;1659;51.470;6.770;2023-06-22T00:16:46;101624.22;;;22.16;58.37
3294;BME280;1659;51.470;6.770;2023-06-22T00:19:13;101622.59;;;22.12;58.60
3294;BME280;1659;51.470;6.770;2023-06-22T00:21:40;101618.34;;;22.08;58.76
3294;BME280;1659;51.470;6.770;2023-06-22T00:24:07;101620.34;;;22.04;58.87
3294;BME280;1659;51.470;6.770;2023-06-22T00:26:34;101621.34;;;22.01;58.94
3294;BME280;1659;51.470;6.770;2023-06-22T00:29:00;101623.25;;;21.99;59.11
3294;BME280;1659;51.470;6.770;2023-06-22T00:31:27;101625.03;;;22.00;59.19
3294;BME280;1659;51.470;6.770;2023-06-22T00:33:55;101616.06;;;22.00;59.21
3294;BME280;1659;51.470;6.770;2023-06-22T00:36:21;101617.03;;;21.99;59.27
3294;BME280;1659;51.470;6.770;2023-06-22T00:38:50;101613.47;;;21.98;59.48
3294;BME280;1659;51.470;6.770;2023-06-22T00:41:16;101612.56;;;21.98;59.56
3294;BME280;1659;51.470;6.770;2023-06-22T00:43:43;101610.94;;;21.95;59.66
3294;BME280;1659;51.470;6.770;2023-06-22T00:46:09;101611.94;;;21.93;59.71
3294;BME280;1659;51.470;6.770;2023-06-22T00:48:39;101621.94;;;21.91;59.82
3294;BME280;1659;51.470;6.770;2023-06-22T00:51:08;101613.06;;;21.88;59.96
3294;BME280;1659;51.470;6.770;2023-06-22T00:53:35;101613.22;;;21.85;60.15
3294;BME280;1659;51.470;6.770;2023-06-22T00:56:04;101607.94;;;21.84;60.22
3294;BME280;1659;51.470;6.770;2023-06-22T00:58:32;101611.59;;;21.83;60.29
3294;BME280;1659;51.470;6.770;2023-06-22T01:00:59;101611.75;;;21.80;60.38
3294;BME280;1659;51.470;6.770;2023-06-22T01:03:27;101606.44;;;21.78;60.42
3294;BME280;1659;51.470;6.770;2023-06-22T01:05:59;101601.22;;;21.75;60.57
3294;BME280;1659;51.470;6.770;2023-06-22T01:08:34;101596.00;;;21.72;60.64
3294;BME280;1659;51.470;6.770;2023-06-22T01:11:09;101593.56;;;21.67;60.72
3294;BME280;1659;51.470;6.770;2023-06-22T01:13:52;101597.25;;;21.65;60.99
3294;BME280;1659;51.470;6.770;2023-06-22T01:16:23;101597.50;;;21.60;61.07
3294;BME280;1659;51.470;6.770;2023-06-22T01:18:54;101592.28;;;21.57;61.28
3294;BME280;1659;51.470;6.770;2023-06-22T01:21:23;101596.97;;;21.54;61.32
3294;BME280;1659;51.470;6.770;2023-06-22T01:23:58;101582.72;;;21.52;61.38
3294;BME280;1659;51.470;6.770;2023-06-22T01:26:35;101591.81;;;21.49;61.49
3294;BME280;1659;51.470;6.770;2023-06-22T01:29:05;101592.84;;;21.46;61.48
3294;BME280;1659;51.470;6.770;2023-06-22T01:31:34;101596.44;;;21.45;61.74
3294;BME280;1659;51.470;6.770;2023-06-22T01:34:04;101596.53;;;21.44;61.82
3294;BME280;1659;51.470;6.770;2023-06-22T01:36:32;101598.41;;;21.42;61.87
3294;BME280;1659;51.470;6.770;2023-06-22T01:38:59;101593.19;;;21.39;62.08
3294;BME280;1659;51.470;6.770;2023-06-22T01:41:29;101580.72;;;21.38;62.06
3294;BME280;1659;51.470;6.770;2023-06-22T01:43:56;101577.31;;;21.34;62.41
3294;BME280;1659;51.470;6.770;2023-06-22T01:46:24;101581.84;;;21.34;62.34
3294;BME280;1659;51.470;6.770;2023-06-22T01:48:51;101581.91;;;21.32;62.38
3294;BME280;1659;51.470;6.770;2023-06-22T01:51:18;101582.84;;;21.31;62.51
3294;BME280;1659;51.470;6.770;2023-06-22T01:53:45;101586.38;;;21.31;62.50
3294;BME280;1659;51.470;6.770;2023-06-22T01:56:13;101583.78;;;21.30;62.60
3294;BME280;1659;51.470;6.770;2023-06-22T01:58:48;101580.31;;;21.28;62.69
3294;BME280;1659;51.470;6.770;2023-06-22T02:01:20;101579.38;;;21.29;62.86
3294;BME280;1659;51.470;6.770;2023-06-22T02:03:56;101581.00;;;21.31;62.96
3294;BME280;1659;51.470;6.770;2023-06-22T02:06:27;101582.84;;;21.31;62.94
3294;BME280;1659;51.470;6.770;2023-06-22T02:09:07;101577.47;;;21.31;62.99
3294;BME280;1659;51.470;6.770;2023-06-22T02:11:35;101574.78;;;21.31;63.11
3294;BME280;1659;51.470;6.770;2023-06-22T02:14:04;101580.16;;;21.31;63.10
3294;BME280;1659;51.470;6.770;2023-06-22T02:16:32;101573.84;;;21.32;63.17
3294;BME280;1659;51.470;6.770;2023-06-22T02:19:01;101583.69;;;21.31;63.28
3294;BME280;1659;51.470;6.770;2023-06-22T02:21:29;101575.81;;;21.28;63.48
3294;BME280;1659;51.470;6.770;2023-06-22T02:23:56;101573.19;;;21.27;63.47
3294;BME280;1659;51.470;6.770;2023-06-22T02:26:24;101575.00;;;21.26;63.74
3294;BME280;1659;51.470;6.770;2023-06-22T02:28:51;101570.66;;;21.24;63.79
3294;BME280;1659;51.470;6.770;2023-06-22T02:31:18;101564.50;;;21.22;63.93
3294;BME280;1659;51.470;6.770;2023-06-22T02:33:45;101572.63;;;21.20;63.93
3294;BME280;1659;51.470;6.770;2023-06-22T02:36:13;101568.28;;;21.18;64.16
3294;BME280;1659;51.470;6.770;2023-06-22T02:38:40;101568.44;;;21.15;64.17
3294;BME280;1659;51.470;6.770;2023-06-22T02:41:11;101567.63;;;21.12;64.22
3294;BME280;1659;51.470;6.770;2023-06-22T02:43:38;101560.59;;;21.10;64.46
3294;BME280;1659;51.470;6.770;2023-06-22T02:46:04;101565.97;;;21.10;64.38
3294;BME280;1659;51.470;6.770;2023-06-22T02:48:31;101565.19;;;21.08;64.44
3294;BME280;1659;51.470;6.770;2023-06-22T02:50:58;101565.28;;;21.06;64.61
3294;BME280;1659;51.470;6.770;2023-06-22T02:53:25;101559.09;;;21.04;64.77
3294;BME280;1659;51.470;6.770;2023-06-22T02:55:52;101557.28;;;21.05;64.84
3294;BME280;1659;51.470;6.770;2023-06-22T02:58:19;101553.81;;;21.03;64.90
3294;BME280;1659;51.470;6.770;2023-06-22T03:00:45;101548.56;;;21.00;65.02
3294;BME280;1659;51.470;6.770;2023-06-22T03:03:12;101549.63;;;20.97;64.98
3294;BME280;1659;51.470;6.770;2023-06-22T03:05:38;101550.63;;;20.94;65.15
3294;BME280;1659;51.470;6.770;2023-06-22T03:08:05;101544.47;;;20.92;65.35
3294;BME280;1659;51.470;6.770;2023-06-22T03:10:33;101545.50;;;20.90;65.45
3294;BME280;1659;51.470;6.770;2023-06-22T03:13:00;101546.50;;;20.87;65.52
3294;BME280;1659;51.470;6.770;2023-06-22T03:15:26;101544.78;;;20.86;65.44
3294;BME280;1659;51.470;6.770;2023-06-22T03:17:54;101542.25;;;20.83;65.64
3294;BME280;1659;51.470;6.770;2023-06-22T03:20:21;101545.84;;;20.82;65.79
3294;BME280;1659;51.470;6.770;2023-06-22T03:22:48;101543.31;;;20.79;65.75
3294;BME280;1659;51.470;6.770;2023-06-22T03:25:15;101538.13;;;20.76;66.01
3294;BME280;1659;51.470;6.770;2023-06-22T03:27:43;101536.44;;;20.73;66.08
3294;BME280;1659;51.470;6.770;2023-06-22T03:30:11;101535.78;;;20.68;66.22
3294;BME280;1659;51.470;6.770;2023-06-22T03:32:38;101526.09;;;20.66;66.27
3294;BME280;1659;51.470;6.770;2023-06-22T03:35:05;101521.66;;;20.65;66.44
3294;BME280;1659;51.470;6.770;2023-06-22T03:37:32;101526.22;;;20.63;66.52
3294;BME280;1659;51.470;6.770;2023-06-22T03:39:59;101518.22;;;20.61;66.54
3294;BME280;1659;51.470;6.770;2023-06-22T03:42:25;101519.94;;;20.64;66.70
3294;BME280;1659;51.470;6.770;2023-06-22T03:44:53;101513.59;;;20.65;66.83
3294;BME280;1659;51.470;6.770;2023-06-22T03:47:20;101515.34;;;20.66;66.83
3294;BME280;1659;51.470;6.770;2023-06-22T03:49:47;101518.03;;;20.66;66.85
3294;BME280;1659;51.470;6.770;2023-06-22T03:52:13;101506.19;;;20.70;66.79
3294;BME280;1659;51.470;6.770;2023-06-22T03:54:40;101501.78;;;20.69;67.15
3294;BME280;1659;51.470;6.770;2023-06-22T03:57:06;101504.47;;;20.69;67.19
3294;BME280;1659;51.470;6.770;2023-06-22T03:59:33;101506.31;;;20.67;67.42
3294;BME280;1659;51.470;6.770;2023-06-22T04:02:01;101512.34;;;20.72;67.51
3294;BME280;1659;51.470;6.770;2023-06-22T04:04:27;101509.59;;;20.73;67.35
3294;BME280;1659;51.470;6.770;2023-06-22T04:06:54;101504.78;;;20.80;67.43
3294;BME280;1659;51.470;6.770;2023-06-22T04:09:21;101503.53;;;20.87;67.41
3294;BME280;1659;51.470;6.770;2023-06-22T04:11:47;101501.63;;;20.89;67.38
3294;BME280;1659;51.470;6.770;2023-06-22T04:14:14;101499.66;;;20.93;67.42
3294;BME280;1659;51.470;6.770;2023-06-22T04:16:41;101493.97;;;20.99;67.43
3294;BME280;1659;51.470;6.770;2023-06-22T04:19:08;101499.91;;;21.06;67.41
3294;BME280;1659;51.470;6.770;2023-06-22T04:21:41;101507.72;;;21.10;67.31
3294;BME280;1659;51.470;6.770;2023-06-22T04:24:07;101503.75;;;21.18;67.40
3294;BME280;1659;51.470;6.770;2023-06-22T04:26:34;101499.09;;;21.21;67.39
3294;BME280;1659;51.470;6.770;2023-06-22T04:29:02;101502.25;;;21.29;67.38
3294;BME280;1659;51.470;6.770;2023-06-22T04:31:30;101505.44;;;21.38;67.21
3294;BME280;1659;51.470;6.770;2023-06-22T04:33:57;101512.38;;;21.42;67.15
3294;BME280;1659;51.470;6.770;2023-06-22T04:36:33;101513.16;;;21.44;67.18
3294;BME280;1659;51.470;6.770;2023-06-22T04:39:03;101510.41;;;21.45;67.16
3294;BME280;1659;51.470;6.770;2023-06-22T04:41:30;101505.84;;;21.47;67.32
3294;BME280;1659;51.470;6.770;2023-06-22T04:44:02;101501.34;;;21.48;67.29
3294;BME280;1659;51.470;6.770;2023-06-22T04:46:29;101502.97;;;21.50;67.22
3294;BME280;1659;51.470;6.770;2023-06-22T04:48:56;101499.44;;;21.50;67.34
3294;BME280;1659;51.470;6.770;2023-06-22T04:51:22;101501.00;;;21.54;67.23
3294;BME280;1659;51.470;6.770;2023-06-22T04:53:57;101498.31;;;21.54;67.19
3294;BME280;1659;51.470;6.770;2023-06-22T04:56:26;101502.91;;;21.52;67.32
3294;BME280;1659;51.470;6.770;2023-06-22T04:58:53;101508.38;;;21.50;67.43
3294;BME280;1659;51.470;6.770;2023-06-22T05:01:21;101512.88;;;21.50;67.48
3294;BME280;1659;51.470;6.770;2023-06-22T05:03:48;101512.88;;;21.50;67.56
3294;BME280;1659;51.470;6.770;2023-06-22T05:06:14;101509.16;;;21.53;67.72
3294;BME280;1659;51.470;6.770;2023-06-22T05:08:41;101504.66;;;21.53;67.54
3294;BME280;1659;51.470;6.770;2023-06-22T05:11:10;101506.31;;;21.56;67.42
3294;BME280;1659;51.470;6.770;2023-06-22T05:13:36;101503.31;;;21.62;67.36
3294;BME280;1659;51.470;6.770;2023-06-22T05:16:03;101502.25;;;21.64;67.30
3294;BME280;1659;51.470;6.770;2023-06-22T05:18:31;101499.47;;;21.66;66.95
3294;BME280;1659;51.470;6.770;2023-06-22T05:20:58;101498.63;;;21.65;67.28
3294;BME280;1659;51.470;6.770;2023-06-22T05:23:25;101498.47;;;21.68;67.17
3294;BME280;1659;51.470;6.770;2023-06-22T05:25:51;101504.56;;;21.72;67.26
3294;BME280;1659;51.470;6.770;2023-06-22T05:28:21;101504.34;;;21.75;67.06
3294;BME280;1659;51.470;6.770;2023-06-22T05:30:49;101503.88;;;21.84;66.89
3294;BME280;1659;51.470;6.770;2023-06-22T05:33:16;101509.19;;;21.86;66.80
3294;BME280;1659;51.470;6.770;2023-06-22T05:35:42;101504.75;;;21.85;66.95
3294;BME280;1659;51.470;6.770;2023-06-22T05:38:09;101496.06;;;21.80;67.02
3294;BME280;1659;51.470;6.770;2023-06-22T05:40:35;101503.19;;;21.81;67.07
3294;BME280;1659;51.470;6.770;2023-06-22T05:43:02;101508.38;;;21.84;67.01
3294;BME280;1659;51.470;6.770;2023-06-22T05:45:30;101513.66;;;21.85;67.07
3294;BME280;1659;51.470;6.770;2023-06-22T05:47:57;101524.97;;;21.92;66.94
3294;BME280;1659;51.470;6.770;2023-06-22T05:50:23;101531.34;;;22.07;66.53
3294;BME280;1659;51.470;6.770;2023-06-22T05:52:50;101539.63;;;22.20;66.20
3294;BME280;1659;51.470;6.770;2023-06-22T05:55:16;101550.13;;;22.24;66.10
3294;BME280;1659;51.470;6.770;2023-06-22T05:57:43;101550.31;;;22.21;66.14
3294;BME280;1659;51.470;6.770;2023-06-22T06:00:11;101543.72;;;22.27;66.21
3294;BME280;1659;51.470;6.770;2023-06-22T06:02:40;101551.56;;;22.32;66.09
3294;BME280;1659;51.470;6.770;2023-06-22T06:05:09;101550.78;;;22.30;66.13
3294;BME280;1659;51.470;6.770;2023-06-22T06:07:36;101547.28;;;22.28;66.36
3294;BME280;1659;51.470;6.770;2023-06-22T06:10:03;101541.16;;;22.24;66.55
3294;BME280;1659;51.470;6.770;2023-06-22T06:12:29;101551.06;;;22.23;66.71
3294;BME280;1659;51.470;6.770;2023-06-22T06:14:56;101553.56;;;22.28;66.62
3294;BME280;1659;51.470;6.770;2023-06-22T06:17:23;101557.81;;;22.32;66.70
3294;BME280;1659;51.470;6.770;2023-06-22T06:19:50;101553.38;;;22.31;66.67
3294;BME280;1659;51.470;6.770;2023-06-22T06:22:17;101547.53;;;22.23;67.00
3294;BME280;1659;51.470;6.770;2023-06-22T06:24:46;101546.28;;;22.13;67.40
3294;BME280;1659;51.470;6.770;2023-06-22T06:27:13;101548.00;;;21.98;67.79
3294;BME280;1659;51.470;6.770;2023-06-22T06:29:40;101548.66;;;21.85;68.23
3294;BME280;1659;51.470;6.770;2023-06-22T06:32:07;101549.53;;;21.86;68.25
3294;BME280;1659;51.470;6.770;2023-06-22T06:34:34;101539.72;;;21.85;68.32
3294;BME280;1659;51.470;6.770;2023-06-22T06:37:02;101536.72;;;21.74;68.63
3294;BME280;1659;51.470;6.770;2023-06-22T06:39:28;101532.97;;;21.60;69.15
3294;BME280;1659;51.470;6.770;2023-06-22T06:41:55;101531.72;;;21.50;69.50
3294;BME280;1659;51.470;6.770;2023-06-22T06:44:21;101526.78;;;21.41;69.85
3294;BME280;1659;51.470;6.770;2023-06-22T06:46:48;101523.53;;;21.34;70.07
3294;BME280;1659;51.470;6.770;2023-06-22T06:49:15;101525.59;;;21.29;70.17
3294;BME280;1659;51.470;6.770;2023-06-22T06:51:41;101512.47;;;21.23;70.52
3294;BME280;1659;51.470;6.770;2023-06-22T06:54:09;101514.22;;;21.24;70.72
3294;BME280;1659;51.470;6.770;2023-06-22T06:56:36;101501.56;;;21.26;70.72
3294;BME280;1659;51.470;6.770;2023-06-22T06:59:02;101494.34;;;21.26;70.85
3294;BME280;1659;51.470;6.770;2023-06-22T07:01:29;101494.91;;;21.33;70.79
3294;BME280;1659;51.470;6.770;2023-06-22T07:03:59;101497.28;;;21.39;70.95
3294;BME280;1659;51.470;6.770;2023-06-22T07:06:25;101503.28;;;21.44;70.94
3294;BME280;1659;51.470;6.770;2023-06-22T07:08:55;101497.88;;;21.46;70.99
3294;BME280;1659;51.470;6.770;2023-06-22T07:11:23;101492.31;;;21.49;71.14
3294;BME280;1659;51.470;6.770;2023-06-22T07:13:49;101489.47;;;21.52;71.23
3294;BME280;1659;51.470;6.770;2023-06-22T07:16:16;101476.78;;;21.54;71.20
3294;BME280;1659;51.470;6.770;2023-06-22T07:18:43;101479.25;;;21.59;71.31
3294;BME280;1659;51.470;6.770;2023-06-22T07:21:09;101487.16;;;21.62;71.37
3294;BME280;1659;51.470;6.770;2023-06-22T07:23:36;101483.50;;;21.63;71.47
3294;BME280;1659;51.470;6.770;2023-06-22T07:26:02;101475.34;;;21.64;71.53
3294;BME280;1659;51.470;6.770;2023-06-22T07:28:32;101469.81;;;21.67;71.59
3294;BME280;1659;51.470;6.770;2023-06-22T07:31:03;101464.97;;;21.74;71.64
3294;BME280;1659;51.470;6.770;2023-06-22T07:33:29;101475.38;;;21.80;71.65
3294;BME280;1659;51.470;6.770;2023-06-22T07:35:56;101477.69;;;21.88;71.68
3294;BME280;1659;51.470;6.770;2023-06-22T07:38:23;101483.59;;;21.95;71.62
3294;BME280;1659;51.470;6.770;2023-06-22T07:40:49;101483.31;;;21.99;71.52
3294;BME280;1659;51.470;6.770;2023-06-22T07:43:18;101487.47;;;22.05;71.47
3294;BME280;1659;51.470;6.770;2023-06-22T07:45:49;101494.53;;;22.08;71.41
3294;BME280;1659;51.470;6.770;2023-06-22T07:48:20;101504.75;;;22.01;71.70
3294;BME280;1659;51.470;6.770;2023-06-22T07:50:46;101496.94;;;21.96;71.91
3294;BME280;1659;51.470;6.770;2023-06-22T07:53:13;101479.06;;;21.95;72.01
3294;BME280;1659;51.470;6.770;2023-06-22T07:55:39;101471.84;;;21.96;72.11
3294;BME280;1659;51.470;6.770;2023-06-22T07:58:06;101470.91;;;21.97;72.10
3294;BME280;1659;51.470;6.770;2023-06-22T08:00:33;101471.06;;;21.94;72.14
3294;BME280;1659;51.470;6.770;2023-06-22T08:03:01;101467.69;;;21.90;72.26
3294;BME280;1659;51.470;6.770;2023-06-22T08:05:30;101455.00;;;21.92;72.35
3294;BME280;1659;51.470;6.770;2023-06-22T08:07:57;101455.78;;;21.94;72.26
3294;BME280;1659;51.470;6.770;2023-06-22T08:10:24;101446.63;;;21.98;72.35
3294;BME280;1659;51.470;6.770;2023-06-22T08:12:51;101449.91;;;22.03;72.32
3294;BME280;1659;51.470;6.770;2023-06-22T08:15:18;101437.94;;;22.09;72.28
3294;BME280;1659;51.470;6.770;2023-06-22T08:17:45;101416.03;;;22.15;72.18
3294;BME280;1659;51.470;6.770;2023-06-22T08:20:13;101406.84;;;22.19;72.05
3294;BME280;1659;51.470;6.770;2023-06-22T08:22:40;101403.66;;;22.29;71.91
3294;BME280;1659;51.470;6.770;2023-06-22T08:25:08;101386.09;;;22.37;71.80
3294;BME280;1659;51.470;6.770;2023-06-22T08:27:35;101381.13;;;22.46;71.87
3294;BME280;1659;51.470;6.770;2023-06-22T08:30:02;101382.66;;;22.50;71.51
3294;BME280;1659;51.470;6.770;2023-06-22T08:32:29;101380.75;;;22.52;71.75
3294;BME280;1659;51.470;6.770;2023-06-22T08:34:58;101375.09;;;22.56;71.64
3294;BME280;1659;51.470;6.770;2023-06-22T08:37:26;101372.09;;;22.61;71.68
3294;BME280;1659;51.470;6.770;2023-06-22T08:39:56;101366.53;;;22.64;71.46
3294;BME280;1659;51.470;6.770;2023-06-22T08:42:23;101360.97;;;22.67;71.49
3294;BME280;1659;51.470;6.770;2023-06-22T08:44:51;101370.59;;;22.71;71.37
3294;BME280;1659;51.470;6.770;2023-06-22T08:47:18;101382.25;;;22.72;71.42
3294;BME280;1659;51.470;6.770;2023-06-22T08:49:44;101396.50;;;22.74;71.35
3294;BME280;1659;51.470;6.770;2023-06-22T08:52:11;101394.84;;;22.71;71.40
3294;BME280;1659;51.470;6.770;2023-06-22T08:54:39;101388.59;;;22.71;71.37
3294;BME280;1659;51.470;6.770;2023-06-22T08:57:06;101382.84;;;22.77;71.53
3294;BME280;1659;51.470;6.770;2023-06-22T08:59:32;101376.56;;;22.76;71.43
3294;BME280;1659;51.470;6.770;2023-06-22T09:01:59;101365.34;;;22.84;71.46
3294;BME280;1659;51.470;6.770;2023-06-22T09:04:25;101364.78;;;22.93;71.30
3294;BME280;1659;51.470;6.770;2023-06-22T09:06:52;101369.50;;;23.04;70.97
3294;BME280;1659;51.470;6.770;2023-06-22T09:09:20;101367.34;;;23.11;70.91
3294;BME280;1659;51.470;6.770;2023-06-22T09:11:48;101369.53;;;23.18;70.90
3294;BME280;1659;51.470;6.770;2023-06-22T09:14:15;101373.50;;;23.27;70.77
3294;BME280;1659;51.470;6.770;2023-06-22T09:16:42;101368.50;;;23.35;70.77
3294;BME280;1659;51.470;6.770;2023-06-22T09:19:08;101366.09;;;23.45;70.55
3294;BME280;1659;51.470;6.770;2023-06-22T09:21:35;101368.19;;;23.54;70.41
3294;BME280;1659;51.470;6.770;2023-06-22T09:24:02;101374.53;;;23.68;70.16
3294;BME280;1659;51.470;6.770;2023-06-22T09:26:29;101381.84;;;23.80;70.10
3294;BME280;1659;51.470;6.770;2023-06-22T09:28:57;101366.59;;;23.93;69.67
3294;BME280;1659;51.470;6.770;2023-06-22T09:31:24;101373.78;;;24.07;69.47
3294;BME280;1659;51.470;6.770;2023-06-22T09:33:52;101372.13;;;24.19;69.44
3294;BME280;1659;51.470;6.770;2023-06-22T09:36:19;101376.28;;;24.38;69.00
3294;BME280;1659;51.470;6.770;2023-06-22T09:38:45;101362.31;;;24.58;68.75
3294;BME280;1659;51.470;6.770;2023-06-22T09:41:12;101371.66;;;24.80;68.25
3294;BME280;1659;51.470;6.770;2023-06-22T09:43:38;101361.19;;;25.01;67.90
3294;BME280;1659;51.470;6.770;2023-06-22T09:46:16;101360.22;;;25.15;67.41
3294;BME280;1659;51.470;6.770;2023-06-22T09:48:42;101353.28;;;25.23;67.55
3294;BME280;1659;51.470;6.770;2023-06-22T09:51:10;101361.50;;;25.35;67.31
3294;BME280;1659;51.470;6.770;2023-06-22T09:53:36;101354.25;;;25.48;66.99
3294;BME280;1659;51.470;6.770;2023-06-22T09:56:03;101351.06;;;25.67;66.43
3294;BME280;1659;51.470;6.770;2023-06-22T09:58:31;101349.25;;;25.92;66.01
3294;BME280;1659;51.470;6.770;2023-06-22T10:00:58;101345.75;;;26.27;65.36
3294;BME280;1659;51.470;6.770;2023-06-22T10:03:26;101350.34;;;26.62;64.55
3294;BME280;1659;51.470;6.770;2023-06-22T10:05:52;101343.91;;;26.98;63.84
3294;BME280;1659;51.470;6.770;2023-06-22T10:08:19;101329.72;;;27.40;62.94
3294;BME280;1659;51.470;6.770;2023-06-22T10:10:45;101330.66;;;27.84;61.88
3294;BME280;1659;51.470;6.770;2023-06-22T10:13:12;101335.00;;;28.19;61.23
3294;BME280;1659;51.470;6.770;2023-06-22T10:15:39;101323.88;;;28.43;60.81
3294;BME280;1659;51.470;6.770;2023-06-22T10:18:05;101324.47;;;28.58;60.32
3294;BME280;1659;51.470;6.770;2023-06-22T10:20:33;101315.97;;;28.72;60.04
3294;BME280;1659;51.470;6.770;2023-06-22T10:23:00;101321.72;;;28.79;59.75
3294;BME280;1659;51.470;6.770;2023-06-22T10:25:27;101311.06;;;28.87;59.72
3294;BME280;1659;51.470;6.770;2023-06-22T10:27:53;101309.13;;;28.99;59.38
3294;BME280;1659;51.470;6.770;2023-06-22T10:30:20;101310.81;;;29.21;58.78
3294;BME280;1659;51.470;6.770;2023-06-22T10:32:47;101307.59;;;29.56;57.70
3294;BME280;1659;51.470;6.770;2023-06-22T10:35:13;101308.22;;;29.60;57.94
3294;BME280;1659;51.470;6.770;2023-06-22T10:37:43;101302.56;;;29.42;57.94
3294;BME280;1659;51.470;6.770;2023-06-22T10:40:12;101300.75;;;29.22;58.52
3294;BME280;1659;51.470;6.770;2023-06-22T10:42:39;101310.44;;;29.05;58.22
3294;BME280;1659;51.470;6.770;2023-06-22T10:45:06;101317.47;;;28.86;58.51
3294;BME280;1659;51.470;6.770;2023-06-22T10:47:33;101327.97;;;28.70;58.53
3294;BME280;1659;51.470;6.770;2023-06-22T10:50:00;101319.78;;;28.49;58.80
3294;BME280;1659;51.470;6.770;2023-06-22T10:52:27;101322.63;;;28.26;59.35
3294;BME280;1659;51.470;6.770;2023-06-22T10:54:55;101331.72;;;28.04;59.58
3294;BME280;1659;51.470;6.770;2023-06-22T10:57:22;101335.47;;;27.80;59.78
3294;BME280;1659;51.470;6.770;2023-06-22T10:59:49;101347.59;;;27.54;59.95
3294;BME280;1659;51.470;6.770;2023-06-22T11:02:16;101350.22;;;27.33;60.18
3294;BME280;1659;51.470;6.770;2023-06-22T11:04:42;101346.25;;;27.14;60.45
3294;BME280;1659;51.470;6.770;2023-06-22T11:07:09;101342.16;;;26.97;60.67
3294;BME280;1659;51.470;6.770;2023-06-22T11:09:36;101345.22;;;26.81;60.72
3294;BME280;1659;51.470;6.770;2023-06-22T11:12:06;101343.56;;;26.67;61.02
3294;BME280;1659;51.470;6.770;2023-06-22T11:14:33;101341.28;;;26.50;61.14
3294;BME280;1659;51.470;6.770;2023-06-22T11:16:59;101339.41;;;26.39;61.38
3294;BME280;1659;51.470;6.770;2023-06-22T11:19:26;101333.69;;;26.31;61.32
3294;BME280;1659;51.470;6.770;2023-06-22T11:21:53;101333.66;;;26.19;61.42
3294;BME280;1659;51.470;6.770;2023-06-22T11:24:19;101344.19;;;26.11;61.84
3294;BME280;1659;51.470;6.770;2023-06-22T11:26:46;101344.91;;;26.02;61.66
3294;BME280;1659;51.470;6.770;2023-06-22T11:29:14;101345.53;;;25.93;62.05
3294;BME280;1659;51.470;6.770;2023-06-22T11:31:40;101339.84;;;25.85;62.21
3294;BME280;1659;51.470;6.770;2023-06-22T11:34:08;101339.78;;;25.73;62.46
3294;BME280;1659;51.470;6.770;2023-06-22T11:36:35;101344.13;;;25.63;62.71
3294;BME280;1659;51.470;6.770;2023-06-22T11:39:02;101344.06;;;25.52;62.81
3294;BME280;1659;51.470;6.770;2023-06-22T11:41:28;101351.44;;;25.37;63.44
3294;BME280;1659;51.470;6.770;2023-06-22T11:43:55;101349.03;;;25.19;63.62
3294;BME280;1659;51.470;6.770;2023-06-22T11:46:23;101359.34;;;25.01;64.34
3294;BME280;1659;51.470;6.770;2023-06-22T11:48:49;101368.72;;;24.70;64.80
3294;BME280;1659;51.470;6.770;2023-06-22T11:51:16;101361.25;;;24.34;66.04
3294;BME280;1659;51.470;6.770;2023-06-22T11:53:42;101334.88;;;23.97;67.01
3294;BME280;1659;51.470;6.770;2023-06-22T11:56:09;101301.66;;;23.82;67.11
3294;BME280;1659;51.470;6.770;2023-06-22T11:58:36;101281.63;;;23.72;67.66
3294;BME280;1659;51.470;6.770;2023-06-22T12:01:02;101277.78;;;23.62;68.01
3294;BME280;1659;51.470;6.770;2023-06-22T12:03:31;101258.75;;;23.50;68.65
3294;BME280;1659;51.470;6.770;2023-06-22T12:05:59;101237.66;;;23.43;69.37
3294;BME280;1659;51.470;6.770;2023-06-22T12:08:26;101249.72;;;23.37;69.76
3294;BME280;1659;51.470;6.770;2023-06-22T12:10:53;101252.25;;;23.26;70.71
3294;BME280;1659;51.470;6.770;2023-06-22T12:13:20;101250.91;;;23.18;71.07
3294;BME280;1659;51.470;6.770;2023-06-22T12:15:46;101255.38;;;23.05;71.64
3294;BME280;1659;51.470;6.770;2023-06-22T12:18:13;101250.31;;;22.99;72.40
3294;BME280;1659;51.470;6.770;2023-06-22T12:20:41;101240.72;;;22.95;72.84
3294;BME280;1659;51.470;6.770;2023-06-22T12:23:08;101233.47;;;22.95;73.19
3294;BME280;1659;51.470;6.770;2023-06-22T12:25:34;101227.31;;;22.93;73.72
3294;BME280;1659;51.470;6.770;2023-06-22T12:28:01;101238.97;;;22.94;74.31
3294;BME280;1659;51.470;6.770;2023-06-22T12:30:27;101241.81;;;23.07;74.62
3294;BME280;1659;51.470;6.770;2023-06-22T12:32:54;101227.88;;;23.27;74.95
3294;BME280;1659;51.470;6.770;2023-06-22T12:35:21;101205.81;;;23.62;74.63
3294;BME280;1659;51.470;6.770;2023-06-22T12:37:49;101197.34;;;24.08;74.12
3294;BME280;1659;51.470;6.770;2023-06-22T12:40:15;101192.81;;;24.35;74.19
3294;BME280;1659;51.470;6.770;2023-06-22T12:42:42;101180.94;;;24.50;74.45
3294;BME280;1659;51.470;6.770;2023-06-22T12:45:09;101166.16;;;24.56;74.69
3294;BME280;1659;51.470;6.770;2023-06-22T12:47:36;101171.72;;;24.53;75.33
3294;BME280;1659;51.470;6.770;2023-06-22T12:50:03;101182.66;;;24.51;75.45
3294;BME280;1659;51.470;6.770;2023-06-22T12:52:30;101175.75;;;24.47;76.23
3294;BME280;1659;51.470;6.770;2023-06-22T12:54:58;101172.28;;;24.45;76.44
3294;BME280;1659;51.470;6.770;2023-06-22T12:57:25;101166.88;;;24.45;76.50
3294;BME280;1659;51.470;6.770;2023-06-22T12:59:51;101183.09;;;24.45;77.13
3294;BME280;1659;51.470;6.770;2023-06-22T13:02:18;101177.38;;;24.37;77.29
3294;BME280;1659;51.470;6.770;2023-06-22T13:04:45;101172.28;;;24.32;77.93
3294;BME280;1659;51.470;6.770;2023-06-22T13:07:11;101159.22;;;24.26;78.42
3294;BME280;1659;51.470;6.770;2023-06-22T13:09:38;101156.53;;;24.26;78.52
3294;BME280;1659;51.470;6.770;2023-06-22T13:12:06;101160.19;;;24.25;78.37